Time;durP1;ratioP1;P1;durP2;ratioP2;P2;SDS_P1;SDS_P2;PMS_P1;PMS_P2;Temp;Humidity;BMP_temperature;BMP_pressure;BME280_temperature;BME280_humidity;BME280_pressure;Samples;Min_cycle;Max_cycle;Signal;HPM_P1;HPM_P2
2023/06/10 00:00:16;;;;;;;8.18;4.75;;;;;;;;;;12989982;19;20025;-65
2023/06/10 00:04:55;;;;;;;9.70;5.03;;;;;;;;;;12990902;19;20020;-64
2023/06/10 00:09:14;;;;;;;;;;;;;;;;;;12990619;19;20010;-65
2023/06/10 00:13:32;;;;;;;5.85;4.28;;;;;;;;;;12990440;19;19915;-65
2023/06/10 00:17:52;;;;;;;6.97;4.93;;;;;;;;;;12990881;19;20607;-64
2023/06/10 00:22:11;;;;;;;6.45;4.63;;;;;;;;;;12989038;19;20011;-65
2023/06/10 00:26:30;;;;;;;7.13;4.97;;;;;;;;;;12989655;19;20034;-65
2023/06/10 00:30:48;;;;;;;8.18;5.70;;;;;;;;;;12989678;19;20021;-64
2023/06/10 00:35:06;;;;;;;9.82;6.18;;;;;;;;;;12988964;19;20011;-64
2023/06/10 00:39:25;;;;;;;7.88;5.57;;;;;;;;;;12988418;19;20026;-65
2023/06/10 00:43:43;;;;;;;8.45;5.90;;;;;;;;;;12987518;19;20021;-64
2023/06/10 00:48:02;;;;;;;7.30;5.38;;;;;;;;;;12988022;19;20488;-65
2023/06/10 00:52:22;;;;;;;9.30;5.85;;;;;;;;;;12988393;19;20026;-65
2023/06/10 00:56:42;;;;;;;14.27;6.32;;;;;;;;;;12986759;19;20018;-64
2023/06/10 01:01:01;;;;;;;7.03;5.55;;;;;;;;;;12987375;19;20022;-68
2023/06/10 01:05:21;;;;;;;10.55;5.47;;;;;;;;;;12989906;19;20006;-65
2023/06/10 01:09:57;;;;;;;8.05;5.72;;;;;;;;;;12985897;19;20094;-65
2023/06/10 01:14:16;;;;;;;9.23;5.72;;;;;;;;;;12986538;19;20449;-65
2023/06/10 01:18:35;;;;;;;7.75;5.20;;;;;;;;;;12987058;19;20019;-65
2023/06/10 01:22:54;;;;;;;9.55;5.93;;;;;;;;;;12985860;19;20039;-64
2023/06/10 01:27:15;;;;;;;8.40;5.30;;;;;;;;;;12983337;19;20045;-65
2023/06/10 01:32:01;;;;;;;6.93;5.05;;;;;;;;;;12984386;19;20021;-64
2023/06/10 01:36:21;;;;;;;6.63;5.00;;;;;;;;;;12983764;19;20022;-65
2023/06/10 01:40:40;;;;;;;10.48;5.10;;;;;;;;;;12983112;19;20026;-65
2023/06/10 01:44:58;;;;;;;7.43;5.03;;;;;;;;;;12984147;19;20017;-65
2023/06/10 01:49:17;;;;;;;8.27;4.95;;;;;;;;;;12985004;19;20010;-65
2023/06/10 01:53:34;;;;;;;9.55;4.95;;;;;;;;;;12985695;19;20022;-65
2023/06/10 01:57:53;;;;;;;6.22;4.25;;;;;;;;;;12985239;19;20003;-65
2023/06/10 02:02:12;;;;;;;6.45;4.93;;;;;;;;;;12984140;19;20015;-65
2023/06/10 02:06:31;;;;;;;7.35;4.68;;;;;;;;;;12983665;19;20374;-65
2023/06/10 02:10:48;;;;;;;8.45;3.90;;;;;;;;;;12983841;19;20470;-65
2023/06/10 02:15:07;;;;;;;5.10;3.90;;;;;;;;;;12982615;19;20030;-66
2023/06/10 02:19:27;;;;;;;7.03;4.32;;;;;;;;;;12983382;19;20262;-65
2023/06/10 02:23:45;;;;;;;7.55;4.75;;;;;;;;;;12982837;19;20445;-64
2023/06/10 02:28:03;;;;;;;4.28;3.53;;;;;;;;;;12982513;19;20014;-64
2023/06/10 02:32:23;;;;;;;5.32;3.90;;;;;;;;;;12983643;19;20497;-64
2023/06/10 02:36:41;;;;;;;;;;;;;;;;;;12984343;19;20381;-64
2023/06/10 02:40:59;;;;;;;7.53;4.25;;;;;;;;;;12981842;19;19919;-65
2023/06/10 02:45:17;;;;;;;7.00;3.80;;;;;;;;;;12981964;19;20358;-64
2023/06/10 02:49:36;;;;;;;5.07;4.07;;;;;;;;;;12982353;19;20003;-64
2023/06/10 02:53:54;;;;;;;5.55;4.10;;;;;;;;;;12981826;19;20011;-65
2023/06/10 02:58:11;;;;;;;10.45;4.05;;;;;;;;;;12979135;19;20026;-65
2023/06/10 03:02:31;;;;;;;6.65;3.63;;;;;;;;;;12981245;19;20015;-64
2023/06/10 03:06:49;;;;;;;5.93;3.75;;;;;;;;;;12981298;19;20015;-65
2023/06/10 03:11:08;;;;;;;5.75;3.80;;;;;;;;;;12980519;19;20015;-65
2023/06/10 03:15:25;;;;;;;;;;;;;;;;;;12982072;19;20018;-65
2023/06/10 03:19:43;;;;;;;;;;;;;;;;;;12982296;19;19915;-64
2023/06/10 03:24:01;;;;;;;4.45;3.17;;;;;;;;;;12979552;19;19918;-65
2023/06/10 03:28:21;;;;;;;6.63;3.05;;;;;;;;;;12980212;19;20010;-65
2023/06/10 03:32:40;;;;;;;3.92;2.90;;;;;;;;;;12980188;19;20384;-65
2023/06/10 03:36:59;;;;;;;6.80;3.67;;;;;;;;;;12979486;19;20025;-64
2023/06/10 03:41:16;;;;;;;;;;;;;;;;;;12978446;19;20019;-65
2023/06/10 03:45:34;;;;;;;4.70;3.42;;;;;;;;;;12978651;19;19911;-65
2023/06/10 03:49:53;;;;;;;8.15;4.28;;;;;;;;;;12984700;19;20014;-65
2023/06/10 03:54:11;;;;;;;7.18;3.75;;;;;;;;;;12990480;19;20037;-65
2023/06/10 03:58:29;;;;;;;7.88;4.57;;;;;;;;;;12991214;19;20011;-65
2023/06/10 04:02:49;;;;;;;7.72;2.92;;;;;;;;;;12990568;19;20010;-65
2023/06/10 04:07:08;;;;;;;7.35;3.70;;;;;;;;;;12989520;19;20018;-65
2023/06/10 04:11:26;;;;;;;10.07;3.70;;;;;;;;;;12990320;19;20022;-64
2023/06/10 04:15:43;;;;;;;;;;;;;;;;;;12991489;19;20014;-64
2023/06/10 04:20:03;;;;;;;5.93;3.25;;;;;;;;;;12990400;19;19930;-65
2023/06/10 04:24:21;;;;;;;5.20;3.58;;;;;;;;;;12989713;19;20041;-64
2023/06/10 04:28:39;;;;;;;5.25;3.60;;;;;;;;;;12988789;19;20015;-64
2023/06/10 04:32:57;;;;;;;5.10;3.60;;;;;;;;;;12989137;19;20022;-64
2023/06/10 04:37:16;;;;;;;4.57;3.03;;;;;;;;;;12988219;19;20026;-63
2023/06/10 04:41:34;;;;;;;;;;;;;;;;;;12987351;19;20018;-63
2023/06/10 04:45:52;;;;;;;;;;;;;;;;;;12988373;19;19919;-63
2023/06/10 04:50:10;;;;;;;5.10;3.03;;;;;;;;;;12987387;19;19919;-63
2023/06/10 04:54:29;;;;;;;6.65;3.00;;;;;;;;;;12987741;19;20014;-63
2023/06/10 04:58:47;;;;;;;7.60;3.45;;;;;;;;;;12987570;19;20350;-63
2023/06/10 05:03:05;;;;;;;3.95;2.40;;;;;;;;;;12987098;19;20022;-64
2023/06/10 05:07:23;;;;;;;3.85;2.90;;;;;;;;;;12988734;19;20089;-63
2023/06/10 05:11:41;;;;;;;;;;;;;;;;;;12988355;19;20006;-63
2023/06/10 05:15:59;;;;;;;3.67;2.50;;;;;;;;;;12987341;19;20131;-63
2023/06/10 05:20:16;;;;;;;;;;;;;;;;;;12987258;19;20014;-64
2023/06/10 05:24:34;;;;;;;4.25;2.63;;;;;;;;;;12986656;19;19934;-63
2023/06/10 05:28:52;;;;;;;2.97;2.45;;;;;;;;;;12983504;19;20505;-63
2023/06/10 05:33:10;;;;;;;5.05;2.75;;;;;;;;;;12985031;19;20014;-63
2023/06/10 05:37:29;;;;;;;7.38;3.05;;;;;;;;;;12985387;19;20006;-63
2023/06/10 05:41:47;;;;;;;4.53;3.17;;;;;;;;;;12983928;19;20030;-63
2023/06/10 05:46:05;;;;;;;5.70;3.40;;;;;;;;;;12983087;19;20038;-63
2023/06/10 05:50:24;;;;;;;4.85;3.30;;;;;;;;;;12982054;19;20348;-63
2023/06/10 05:54:42;;;;;;;5.75;2.45;;;;;;;;;;12984756;19;20014;-64
2023/06/10 05:59:00;;;;;;;3.53;2.60;;;;;;;;;;12983771;19;20473;-64
2023/06/10 06:03:19;;;;;;;3.72;2.78;;;;;;;;;;12983709;19;20021;-65
2023/06/10 06:07:38;;;;;;;4.55;2.92;;;;;;;;;;12983591;19;20405;-65
2023/06/10 06:11:56;;;;;;;4.28;2.67;;;;;;;;;;12982190;19;20011;-65
2023/06/10 06:16:14;;;;;;;4.07;3.08;;;;;;;;;;12981272;19;20018;-65
2023/06/10 06:20:32;;;;;;;5.65;2.58;;;;;;;;;;12982383;19;20438;-65
2023/06/10 06:24:50;;;;;;;7.45;3.30;;;;;;;;;;12982039;19;20015;-65
2023/06/10 06:29:09;;;;;;;9.63;3.08;;;;;;;;;;12981798;19;20128;-66
2023/06/10 06:33:26;;;;;;;4.70;3.03;;;;;;;;;;12982177;19;20017;-65
2023/06/10 06:37:44;;;;;;;4.00;2.88;;;;;;;;;;12982471;19;20018;-65
2023/06/10 06:42:03;;;;;;;4.18;2.80;;;;;;;;;;12978451;19;20141;-66
2023/06/10 06:46:22;;;;;;;5.30;2.72;;;;;;;;;;12980820;19;20035;-65
2023/06/10 06:50:41;;;;;;;5.40;2.53;;;;;;;;;;12981221;19;20360;-65
2023/06/10 06:54:59;;;;;;;4.38;3.28;;;;;;;;;;12981082;19;20018;-65
2023/06/10 06:59:19;;;;;;;3.63;2.28;;;;;;;;;;12980654;19;20015;-65
2023/06/10 07:03:37;;;;;;;3.55;2.65;;;;;;;;;;12980890;19;20010;-65
2023/06/10 07:07:56;;;;;;;3.08;2.55;;;;;;;;;;12981540;19;20033;-65
2023/06/10 07:12:13;;;;;;;;;;;;;;;;;;12980966;19;20014;-65
2023/06/10 07:16:31;;;;;;;4.20;2.53;;;;;;;;;;12979733;19;20281;-65
2023/06/10 07:20:49;;;;;;;;;;;;;;;;;;12980222;19;20351;-65
2023/06/10 07:25:07;;;;;;;4.95;2.38;;;;;;;;;;12985145;19;19922;-65
2023/06/10 07:29:26;;;;;;;7.80;2.42;;;;;;;;;;12993132;19;20031;-65
2023/06/10 07:33:44;;;;;;;3.15;2.42;;;;;;;;;;12992173;19;20010;-64
2023/06/10 07:38:02;;;;;;;2.67;2.28;;;;;;;;;;12992466;19;20019;-65
2023/06/10 07:42:20;;;;;;;2.78;2.15;;;;;;;;;;12990534;19;20019;-65
2023/06/10 07:46:38;;;;;;;3.28;2.38;;;;;;;;;;12990656;19;20018;-65
2023/06/10 07:50:57;;;;;;;4.55;2.70;;;;;;;;;;12992250;19;20031;-65
2023/06/10 07:55:15;;;;;;;;;;;;;;;;;;12991927;19;20017;-65
2023/06/10 07:59:35;;;;;;;3.30;2.63;;;;;;;;;;12990921;19;19914;-65
2023/06/10 08:03:53;;;;;;;5.82;2.28;;;;;;;;;;12989755;19;20485;-65
2023/06/10 08:08:13;;;;;;;3.97;2.65;;;;;;;;;;12989101;19;20478;-65
2023/06/10 08:12:34;;;;;;;4.13;2.72;;;;;;;;;;12990197;19;20477;-65
2023/06/10 08:16:51;;;;;;;3.28;2.70;;;;;;;;;;12989634;19;20486;-65
2023/06/10 08:21:11;;;;;;;3.05;2.47;;;;;;;;;;12989613;19;20014;-65
2023/06/10 08:25:29;;;;;;;4.30;2.63;;;;;;;;;;12989080;19;20376;-65
2023/06/10 08:29:47;;;;;;;4.00;2.63;;;;;;;;;;12989754;19;20014;-65
2023/06/10 08:34:05;;;;;;;4.50;2.95;;;;;;;;;;12988067;19;20019;-65
2023/06/10 08:38:24;;;;;;;4.25;2.70;;;;;;;;;;12989138;19;20504;-65
2023/06/10 08:42:51;;;;;;;3.78;2.45;;;;;;;;;;12987546;19;20026;-65
2023/06/10 08:47:15;;;;;;;3.72;2.53;;;;;;;;;;12986956;19;20474;-65
2023/06/10 08:51:36;;;;;;;4.40;2.35;;;;;;;;;;12988631;19;20489;-65
2023/06/10 08:55:58;;;;;;;3.30;2.35;;;;;;;;;;12987944;19;20030;-65
2023/06/10 09:00:17;;;;;;;4.32;2.88;;;;;;;;;;12987418;19;20018;-65
2023/06/10 09:04:36;;;;;;;8.15;2.28;;;;;;;;;;12985107;19;20021;-65
2023/06/10 09:08:55;;;;;;;4.60;2.38;;;;;;;;;;12985821;19;20597;-65
2023/06/10 09:13:19;;;;;;;3.97;2.78;;;;;;;;;;12984799;19;20468;-65
2023/06/10 09:17:37;;;;;;;3.00;2.30;;;;;;;;;;12985010;19;20358;-65
2023/06/10 09:21:55;;;;;;;2.70;1.77;;;;;;;;;;12986457;19;20014;-65
2023/06/10 09:26:14;;;;;;;4.97;2.60;;;;;;;;;;12985335;19;20018;-65
2023/06/10 09:30:34;;;;;;;3.15;2.22;;;;;;;;;;12985648;19;20011;-65
2023/06/10 09:34:52;;;;;;;2.47;1.75;;;;;;;;;;12986182;19;20027;-65
2023/06/10 09:39:17;;;;;;;4.40;2.40;;;;;;;;;;12984098;19;20397;-65
2023/06/10 09:43:53;;;;;;;4.15;2.53;;;;;;;;;;12984754;19;20010;-65
2023/06/10 09:48:11;;;;;;;2.80;1.95;;;;;;;;;;12982545;19;20029;-65
2023/06/10 09:52:30;;;;;;;4.75;2.35;;;;;;;;;;12985052;19;20021;-65
2023/06/10 09:56:51;;;;;;;3.15;2.22;;;;;;;;;;12984779;19;20038;-65
2023/06/10 10:01:12;;;;;;;3.35;1.80;;;;;;;;;;12981500;19;20019;-65
2023/06/10 10:05:30;;;;;;;3.92;2.33;;;;;;;;;;12983947;19;20018;-65
2023/06/10 10:09:49;;;;;;;4.72;2.38;;;;;;;;;;12983562;19;20025;-65
2023/06/10 10:14:09;;;;;;;2.20;1.92;;;;;;;;;;12982743;19;20022;-65
2023/06/10 10:18:31;;;;;;;3.33;1.92;;;;;;;;;;12981863;19;20018;-65
2023/06/10 10:22:52;;;;;;;2.40;1.75;;;;;;;;;;12981407;19;20011;-65
2023/06/10 10:27:52;;;;;;;2.28;2.03;;;;;;;;;;12982767;19;20018;-65
2023/06/10 10:32:13;;;;;;;2.72;1.92;;;;;;;;;;12977206;19;20014;-65
2023/06/10 10:36:32;;;;;;;2.67;1.90;;;;;;;;;;12982576;19;20021;-65
2023/06/10 10:40:51;;;;;;;3.00;1.85;;;;;;;;;;12981533;19;20022;-65
2023/06/10 10:45:10;;;;;;;3.65;2.05;;;;;;;;;;12978581;19;20038;-66
2023/06/10 10:49:30;;;;;;;3.08;2.15;;;;;;;;;;12979806;19;20047;-65
2023/06/10 10:54:13;;;;;;;2.63;2.10;;;;;;;;;;12982084;19;20026;-65
2023/06/10 10:58:34;;;;;;;3.55;2.17;;;;;;;;;;12986550;19;20015;-64
2023/06/10 11:02:53;;;;;;;2.72;1.90;;;;;;;;;;12992099;19;20010;-65
2023/06/10 11:07:21;;;;;;;11.65;2.00;;;;;;;;;;12991934;19;20382;-65
2023/06/10 11:11:50;;;;;;;4.97;1.98;;;;;;;;;;12990971;19;20026;-65
2023/06/10 11:16:09;;;;;;;4.65;2.25;;;;;;;;;;12992488;19;20018;-65
2023/06/10 11:20:58;;;;;;;3.28;2.30;;;;;;;;;;12993119;19;20014;-65
2023/06/10 11:25:16;;;;;;;2.83;2.10;;;;;;;;;;12990730;19;20086;-65
2023/06/10 11:29:34;;;;;;;3.80;2.10;;;;;;;;;;12992896;19;20014;-64
2023/06/10 11:34:05;;;;;;;2.63;1.80;;;;;;;;;;12993212;19;20624;-65
2023/06/10 11:38:23;;;;;;;4.90;2.40;;;;;;;;;;12992391;19;20014;-64
2023/06/10 11:42:42;;;;;;;2.53;1.98;;;;;;;;;;12991636;19;20029;-64
2023/06/10 11:47:00;;;;;;;4.82;1.70;;;;;;;;;;12991269;19;20537;-64
2023/06/10 11:51:19;;;;;;;2.72;1.65;;;;;;;;;;12991960;19;20014;-64
2023/06/10 11:55:50;;;;;;;2.15;1.50;;;;;;;;;;12991536;19;20010;-64
2023/06/10 12:00:09;;;;;;;2.65;1.98;;;;;;;;;;12988992;19;20010;-64
2023/06/10 12:04:27;;;;;;;1.80;1.38;;;;;;;;;;12990959;19;20042;-64
2023/06/10 12:08:44;;;;;;;2.08;1.45;;;;;;;;;;12989619;19;20474;-64
2023/06/10 12:13:03;;;;;;;2.13;1.48;;;;;;;;;;12989557;19;20291;-64
2023/06/10 12:17:32;;;;;;;5.00;1.52;;;;;;;;;;12990267;19;20017;-64
2023/06/10 12:21:51;;;;;;;3.95;1.75;;;;;;;;;;12990652;19;20767;-64
2023/06/10 12:26:11;;;;;;;3.22;1.60;;;;;;;;;;12989842;19;20014;-64
2023/06/10 12:30:28;;;;;;;4.57;1.80;;;;;;;;;;12990683;19;20018;-64
2023/06/10 12:34:48;;;;;;;1.92;1.55;;;;;;;;;;12990239;19;20022;-63
2023/06/10 12:39:05;;;;;;;2.45;1.70;;;;;;;;;;12988882;19;20023;-64
2023/06/10 12:43:24;;;;;;;3.35;1.58;;;;;;;;;;12987882;19;20347;-65
2023/06/10 12:47:42;;;;;;;2.25;1.50;;;;;;;;;;12988200;19;20015;-64
2023/06/10 12:52:01;;;;;;;3.17;2.10;;;;;;;;;;12988684;19;20011;-64
2023/06/10 12:56:19;;;;;;;1.73;1.58;;;;;;;;;;12986994;19;20010;-64
2023/06/10 13:00:38;;;;;;;2.00;1.75;;;;;;;;;;12986574;19;20327;-64
2023/06/10 13:04:55;;;;;;;2.05;1.70;;;;;;;;;;12985680;19;20021;-65
2023/06/10 13:09:15;;;;;;;1.67;1.40;;;;;;;;;;12964033;19;20014;-64
2023/06/10 13:13:33;;;;;;;3.72;1.38;;;;;;;;;;12988029;19;20014;-65
2023/06/10 13:17:53;;;;;;;2.00;1.67;;;;;;;;;;12986138;19;20017;-64
2023/06/10 13:22:12;;;;;;;4.63;2.00;;;;;;;;;;12984427;19;20360;-65
2023/06/10 13:26:30;;;;;;;3.83;1.48;;;;;;;;;;12987868;19;20343;-65
2023/06/10 13:30:48;;;;;;;2.60;1.70;;;;;;;;;;12987081;19;20014;-65
2023/06/10 13:35:08;;;;;;;2.55;1.70;;;;;;;;;;12985437;19;20720;-65
2023/06/10 13:39:27;;;;;;;1.85;1.38;;;;;;;;;;12986902;19;20362;-65
2023/06/10 13:43:45;;;;;;;2.25;1.83;;;;;;;;;;12985258;19;20025;-65
2023/06/10 13:48:05;;;;;;;3.03;2.03;;;;;;;;;;12984878;19;20010;-65
2023/06/10 13:52:24;;;;;;;1.70;1.50;;;;;;;;;;12985312;19;20366;-65
2023/06/10 13:56:42;;;;;;;2.15;1.77;;;;;;;;;;12986135;19;20010;-65
2023/06/10 14:01:01;;;;;;;2.22;1.60;;;;;;;;;;12984134;19;20046;-64
2023/06/10 14:05:19;;;;;;;4.43;2.20;;;;;;;;;;12986342;19;20487;-64
2023/06/10 14:09:38;;;;;;;2.28;1.83;;;;;;;;;;12985584;19;20010;-65
2023/06/10 14:13:58;;;;;;;5.00;2.55;;;;;;;;;;12985327;19;20025;-67
2023/06/10 14:18:17;;;;;;;4.15;2.30;;;;;;;;;;12984343;19;20020;-67
2023/06/10 14:22:35;;;;;;;5.45;2.55;;;;;;;;;;12985220;19;20021;-66
2023/06/10 14:26:53;;;;;;;;;;;;;;;;;;12985719;19;20018;-66
2023/06/10 14:31:11;;;;;;;12.80;6.28;;;;;;;;;;12984279;19;19921;-66
2023/06/10 14:35:29;;;;;;;;;;;;;;;;;;12983574;19;20474;-65
2023/06/10 14:39:48;;;;;;;3.95;2.65;;;;;;;;;;12984325;19;20270;-65
2023/06/10 14:44:06;;;;;;;2.10;1.90;;;;;;;;;;12982045;19;20010;-66
2023/06/10 14:48:27;;;;;;;4.45;2.80;;;;;;;;;;12982840;19;20010;-65
2023/06/10 14:52:45;;;;;;;4.80;2.53;;;;;;;;;;12983186;19;20014;-65
2023/06/10 14:57:03;;;;;;;6.38;2.65;;;;;;;;;;12982044;19;20027;-65
2023/06/10 15:01:21;;;;;;;3.30;1.92;;;;;;;;;;12983055;19;20093;-65
2023/06/10 15:05:39;;;;;;;2.90;1.92;;;;;;;;;;12984156;19;20018;-65
2023/06/10 15:09:57;;;;;;;;;;;;;;;;;;12983986;19;20026;-65
2023/06/10 15:14:15;;;;;;;1.75;1.40;;;;;;;;;;12982024;19;19919;-65
2023/06/10 15:18:33;;;;;;;1.52;1.23;;;;;;;;;;12982068;19;20031;-65
2023/06/10 15:22:51;;;;;;;1.77;1.50;;;;;;;;;;12981527;19;20014;-65
2023/06/10 15:27:08;;;;;;;;;;;;;;;;;;12980760;19;20014;-65
2023/06/10 15:31:27;;;;;;;2.35;1.90;;;;;;;;;;12980266;19;20264;-64
2023/06/10 15:35:45;;;;;;;3.50;1.52;;;;;;;;;;12979280;19;20014;-65
2023/06/10 15:40:04;;;;;;;;;;;;;;;;;;12979797;19;20011;-64
2023/06/10 15:44:22;;;;;;;3.03;1.40;;;;;;;;;;12981216;19;20313;-65
2023/06/10 15:48:40;;;;;;;3.00;1.98;;;;;;;;;;12991929;19;20392;-64
2023/06/10 15:52:58;;;;;;;1.98;1.60;;;;;;;;;;12989775;19;20106;-64
2023/06/10 15:57:18;;;;;;;2.40;1.55;;;;;;;;;;12990249;19;20021;-64
2023/06/10 16:01:41;;;;;;;4.25;1.95;;;;;;;;;;12991031;19;20014;-64
2023/06/10 16:05:59;;;;;;;3.95;1.98;;;;;;;;;;12991031;19;20018;-64
2023/06/10 16:10:18;;;;;;;2.28;1.60;;;;;;;;;;12989409;19;20010;-64
2023/06/10 16:14:36;;;;;;;2.55;1.60;;;;;;;;;;12990866;19;20038;-64
2023/06/10 16:18:54;;;;;;;2.75;1.50;;;;;;;;;;12988679;19;20010;-64
2023/06/10 16:23:12;;;;;;;11.45;1.52;;;;;;;;;;12989311;19;20027;-64
2023/06/10 16:27:30;;;;;;;2.00;1.60;;;;;;;;;;12989932;19;20338;-65
2023/06/10 16:31:49;;;;;;;4.22;1.73;;;;;;;;;;12989004;19;20018;-64
2023/06/10 16:36:07;;;;;;;4.15;1.60;;;;;;;;;;12985314;19;20097;-66
2023/06/10 16:40:25;;;;;;;3.08;2.03;;;;;;;;;;12988566;19;20010;-65
2023/06/10 16:44:43;;;;;;;2.05;1.67;;;;;;;;;;12988940;19;20011;-65
2023/06/10 16:49:01;;;;;;;5.65;2.00;;;;;;;;;;12989434;19;20011;-64
2023/06/10 16:53:19;;;;;;;3.03;1.55;;;;;;;;;;12988086;19;20026;-64
2023/06/10 16:57:37;;;;;;;2.97;1.95;;;;;;;;;;12987018;19;20010;-65
2023/06/10 17:01:56;;;;;;;3.15;1.75;;;;;;;;;;12987597;19;20018;-64
2023/06/10 17:06:18;;;;;;;4.30;1.48;;;;;;;;;;12987124;19;20018;-65
2023/06/10 17:10:36;;;;;;;1.65;1.48;;;;;;;;;;12987315;19;20014;-64
2023/06/10 17:14:54;;;;;;;3.30;1.92;;;;;;;;;;12987928;19;20095;-64
2023/06/10 17:19:11;;;;;;;1.67;1.35;;;;;;;;;;12985451;19;20755;-65
2023/06/10 17:23:30;;;;;;;2.42;1.48;;;;;;;;;;12986809;19;20014;-64
2023/06/10 17:27:49;;;;;;;4.85;2.60;;;;;;;;;;12986312;19;20473;-64
2023/06/10 17:32:09;;;;;;;8.57;2.95;;;;;;;;;;12986120;19;20030;-64
2023/06/10 17:36:27;;;;;;;3.15;1.58;;;;;;;;;;12985641;19;20021;-63
2023/06/10 17:40:45;;;;;;;2.17;1.55;;;;;;;;;;12985777;19;20050;-63
2023/06/10 17:45:03;;;;;;;3.50;1.70;;;;;;;;;;12983233;19;20549;-67
2023/06/10 17:49:22;;;;;;;3.05;1.55;;;;;;;;;;12987061;19;20034;-64
2023/06/10 17:53:48;;;;;;;4.27;1.67;;;;;;;;;;12986036;19;20382;-64
2023/06/10 17:58:07;;;;;;;2.17;1.48;;;;;;;;;;12983991;19;20025;-64
2023/06/10 18:02:25;;;;;;;3.40;2.35;;;;;;;;;;12984646;19;20022;-64
2023/06/10 18:06:44;;;;;;;;;;;;;;;;;;12984115;19;20025;-64
2023/06/10 18:11:02;;;;;;;5.47;2.67;;;;;;;;;;12983756;19;19922;-64
2023/06/10 18:15:20;;;;;;;3.08;2.00;;;;;;;;;;12984923;19;20017;-64
2023/06/10 18:19:38;;;;;;;2.33;1.85;;;;;;;;;;12984788;19;20484;-64
2023/06/10 18:23:57;;;;;;;25.55;12.70;;;;;;;;;;12983139;19;20007;-64
2023/06/10 18:28:15;;;;;;;19.55;11.57;;;;;;;;;;12983065;19;20440;-64
2023/06/10 18:32:34;;;;;;;9.93;5.78;;;;;;;;;;12983240;19;20014;-64
2023/06/10 18:36:52;;;;;;;17.90;5.90;;;;;;;;;;12982359;19;20014;-64
2023/06/10 18:41:11;;;;;;;7.95;5.35;;;;;;;;;;12982138;19;20018;-64
2023/06/10 18:45:29;;;;;;;7.55;3.50;;;;;;;;;;12982368;19;20027;-64
2023/06/10 18:49:48;;;;;;;5.95;3.50;;;;;;;;;;12982826;19;20014;-64
2023/06/10 18:54:06;;;;;;;;;;;;;;;;;;12982553;19;20010;-64
2023/06/10 18:58:24;;;;;;;16.95;5.68;;;;;;;;;;12982195;19;20344;-64
2023/06/10 19:02:44;;;;;;;6.97;4.00;;;;;;;;;;12982491;19;20500;-64
2023/06/10 19:07:02;;;;;;;13.63;6.07;;;;;;;;;;12981537;19;20048;-64
2023/06/10 19:11:21;;;;;;;12.63;6.28;;;;;;;;;;12981797;19;20386;-64
2023/06/10 19:15:41;;;;;;;20.42;10.55;;;;;;;;;;12982051;19;20019;-64
2023/06/10 19:19:59;;;;;;;21.15;7.65;;;;;;;;;;12987066;19;20038;-64
2023/06/10 19:24:18;;;;;;;8.60;4.57;;;;;;;;;;12992849;19;20038;-64
2023/06/10 19:28:37;;;;;;;4.70;3.05;;;;;;;;;;12990283;19;20025;-64
2023/06/10 19:32:56;;;;;;;7.72;3.40;;;;;;;;;;12992940;19;20081;-64
2023/06/10 19:37:14;;;;;;;5.18;2.50;;;;;;;;;;12992313;19;20318;-64
2023/06/10 19:41:34;;;;;;;6.07;3.38;;;;;;;;;;12991485;19;20006;-64
2023/06/10 19:45:53;;;;;;;14.30;5.43;;;;;;;;;;12992970;19;20032;-64
2023/06/10 19:50:12;;;;;;;7.35;3.83;;;;;;;;;;12992052;19;20010;-64
2023/06/10 19:54:35;;;;;;;9.10;4.50;;;;;;;;;;12991427;19;20014;-63
2023/06/10 19:58:53;;;;;;;11.65;4.15;;;;;;;;;;12989561;19;20018;-64
2023/06/10 20:03:11;;;;;;;;;;;;;;;;;;12991060;19;20038;-64
2023/06/10 20:07:31;;;;;;;7.28;3.42;;;;;;;;;;12990012;19;19914;-63
2023/06/10 20:11:48;;;;;;;7.35;3.78;;;;;;;;;;12990167;19;20077;-64
2023/06/10 20:16:07;;;;;;;7.60;3.88;;;;;;;;;;12988832;19;20025;-64
2023/06/10 20:20:26;;;;;;;6.55;3.72;;;;;;;;;;12989592;19;20689;-64
2023/06/10 20:24:47;;;;;;;6.10;3.20;;;;;;;;;;12990086;19;20018;-63
2023/06/10 20:29:05;;;;;;;4.95;3.17;;;;;;;;;;12988641;19;20017;-63
2023/06/10 20:33:22;;;;;;;;;;;;;;;;;;12988373;19;20014;-64
2023/06/10 20:37:41;;;;;;;4.85;2.78;;;;;;;;;;12987953;19;19922;-63
2023/06/10 20:41:59;;;;;;;6.65;3.30;;;;;;;;;;12987893;19;20497;-63
2023/06/10 20:46:17;;;;;;;7.18;2.33;;;;;;;;;;12988550;19;20373;-63
2023/06/10 20:50:36;;;;;;;3.42;2.55;;;;;;;;;;12989035;19;20014;-63
2023/06/10 20:54:55;;;;;;;5.00;2.50;;;;;;;;;;12988306;19;20050;-63
2023/06/10 20:59:13;;;;;;;7.70;3.13;;;;;;;;;;12986386;19;20021;-63
2023/06/10 21:03:32;;;;;;;3.80;2.70;;;;;;;;;;12987660;19;20006;-64
2023/06/10 21:07:50;;;;;;;4.40;2.92;;;;;;;;;;12986803;19;20022;-64
2023/06/10 21:12:09;;;;;;;6.15;2.63;;;;;;;;;;12985090;19;20120;-64
2023/06/10 21:16:30;;;;;;;2.90;2.42;;;;;;;;;;12986675;19;20036;-64
2023/06/10 21:20:48;;;;;;;4.10;2.72;;;;;;;;;;12986385;19;20017;-64
2023/06/10 21:25:07;;;;;;;5.60;2.53;;;;;;;;;;12985341;19;20017;-64
2023/06/10 21:29:27;;;;;;;6.70;2.40;;;;;;;;;;12985827;19;20098;-64
2023/06/10 21:33:46;;;;;;;4.50;2.85;;;;;;;;;;12985885;19;20525;-64
2023/06/10 21:38:04;;;;;;;4.20;2.92;;;;;;;;;;12983974;19;20010;-64
2023/06/10 21:42:23;;;;;;;3.75;2.63;;;;;;;;;;12982750;19;20448;-64
2023/06/10 21:46:41;;;;;;;3.00;1.92;;;;;;;;;;12986049;19;20041;-64
2023/06/10 21:50:59;;;;;;;3.70;2.65;;;;;;;;;;12984497;19;20023;-64
2023/06/10 21:55:17;;;;;;;3.25;2.50;;;;;;;;;;12985139;19;20018;-64
2023/06/10 21:59:37;;;;;;;3.80;2.75;;;;;;;;;;12983960;19;20014;-64
2023/06/10 22:03:56;;;;;;;4.40;2.72;;;;;;;;;;12984272;19;20014;-64
2023/06/10 22:08:13;;;;;;;;;;;;;;;;;;12983876;19;20025;-64
2023/06/10 22:12:33;;;;;;;3.05;2.22;;;;;;;;;;12983307;19;20326;-64
2023/06/10 22:16:52;;;;;;;3.30;2.30;;;;;;;;;;12983007;19;20018;-64
2023/06/10 22:21:10;;;;;;;5.72;2.63;;;;;;;;;;12982948;19;20006;-64
2023/06/10 22:25:29;;;;;;;4.32;2.80;;;;;;;;;;12968028;19;20376;-64
2023/06/10 22:29:47;;;;;;;6.38;2.85;;;;;;;;;;12983516;19;20023;-64
2023/06/10 22:34:05;;;;;;;3.20;2.60;;;;;;;;;;12982283;19;20010;-64
2023/06/10 22:38:23;;;;;;;6.05;3.13;;;;;;;;;;12981691;19;20006;-64
2023/06/10 22:42:41;;;;;;;4.30;3.00;;;;;;;;;;12979623;19;20078;-64
2023/06/10 22:46:59;;;;;;;6.22;2.40;;;;;;;;;;12981673;19;20014;-63
2023/06/10 22:51:18;;;;;;;3.08;2.17;;;;;;;;;;12981496;19;20097;-64
2023/06/10 22:55:37;;;;;;;4.00;2.70;;;;;;;;;;12981433;19;20021;-65
2023/06/10 22:59:55;;;;;;;3.83;2.35;;;;;;;;;;12981024;19;20017;-64
2023/06/10 23:04:13;;;;;;;5.15;2.47;;;;;;;;;;12980744;19;20484;-64
2023/06/10 23:08:31;;;;;;;3.53;2.40;;;;;;;;;;12981872;19;20358;-64
2023/06/10 23:12:49;;;;;;;3.80;2.67;;;;;;;;;;12981266;19;20010;-63
2023/06/10 23:17:07;;;;;;;5.10;3.15;;;;;;;;;;12979251;19;20339;-64
2023/06/10 23:21:33;;;;;;;5.50;2.65;;;;;;;;;;12980043;19;20014;-63
2023/06/10 23:25:52;;;;;;;5.07;3.33;;;;;;;;;;12980058;19;20078;-64
2023/06/10 23:30:09;;;;;;;3.67;2.93;;;;;;;;;;12977348;19;20014;-64
2023/06/10 23:34:28;;;;;;;4.60;2.28;;;;;;;;;;12978221;19;20011;-64
2023/06/10 23:38:45;;;;;;;3.80;2.60;;;;;;;;;;12979319;19;20010;-64
2023/06/10 23:43:04;;;;;;;4.57;3.22;;;;;;;;;;12977687;19;20468;-63
2023/06/10 23:47:21;;;;;;;6.00;2.80;;;;;;;;;;12979267;19;20034;-63
2023/06/10 23:51:39;;;;;;;4.50;3.08;;;;;;;;;;12980320;19;20033;-64
2023/06/10 23:55:58;;;;;;;4.35;2.65;;;;;;;;;;12979327;19;20339;-63
